sensor_id;sensor_type;location;lat;lon;timestamp;pressure;altitude;pressure_sealevel;temperature;humidity
74169;BME280;62523;53.336;83.690;2023-07-08T00:04:18;98226.25;;;17.73;100.00
74169;BME280;62523;53.336;83.690;2023-07-08T00:09:20;98227.19;;;17.64;100.00
74169;BME280;62523;53.336;83.690;2023-07-08T00:14:22;98239.16;;;17.60;100.00
74169;BME280;62523;53.336;83.690;2023-07-08T00:19:24;98247.88;;;18.05;100.00
74169;BME280;62523;53.336;83.690;2023-07-08T00:24:26;98234.28;;;18.16;99.46
74169;BME280;62523;53.336;83.690;2023-07-08T00:29:28;98238.69;;;18.33;97.24
74169;BME280;62523;53.336;83.690;2023-07-08T00:34:29;98239.88;;;18.47;97.30
74169;BME280;62523;53.336;83.690;2023-07-08T00:39:32;98253.38;;;18.37;96.05
74169;BME280;62523;53.336;83.690;2023-07-08T00:44:34;98254.38;;;18.45;95.51
74169;BME280;62523;53.336;83.690;2023-07-08T00:49:42;98261.03;;;18.40;96.37
74169;BME280;62523;53.336;83.690;2023-07-08T00:54:45;98254.06;;;18.56;95.72
74169;BME280;62523;53.336;83.690;2023-07-08T00:59:55;98246.25;;;18.62;95.21
74169;BME280;62523;53.336;83.690;2023-07-08T01:05:05;98234.78;;;19.36;90.88
74169;BME280;62523;53.336;83.690;2023-07-08T01:10:16;98230.06;;;21.95;77.39
74169;BME280;62523;53.336;83.690;2023-07-08T01:15:23;98217.66;;;23.81;70.48
74169;BME280;62523;53.336;83.690;2023-07-08T01:20:27;98225.59;;;22.89;72.22
74169;BME280;62523;53.336;83.690;2023-07-08T01:25:29;98227.28;;;21.88;75.96
74169;BME280;62523;53.336;83.690;2023-07-08T01:30:33;98223.38;;;22.20;76.66
74169;BME280;62523;53.336;83.690;2023-07-08T01:35:35;98218.75;;;23.30;70.70
74169;BME280;62523;53.336;83.690;2023-07-08T01:40:38;98213.00;;;23.68;68.44
74169;BME280;62523;53.336;83.690;2023-07-08T01:45:41;98225.53;;;22.61;74.22
74169;BME280;62523;53.336;83.690;2023-07-08T01:50:50;98221.00;;;22.62;72.85
74169;BME280;62523;53.336;83.690;2023-07-08T01:55:52;98223.09;;;23.59;70.76
74169;BME280;62523;53.336;83.690;2023-07-08T02:00:54;98223.00;;;23.18;70.64
74169;BME280;62523;53.336;83.690;2023-07-08T02:05:58;98207.19;;;24.47;68.72
74169;BME280;62523;53.336;83.690;2023-07-08T02:11:00;98203.53;;;24.55;66.25
74169;BME280;62523;53.336;83.690;2023-07-08T02:16:03;98207.84;;;23.95;69.08
74169;BME280;62523;53.336;83.690;2023-07-08T02:21:07;98196.88;;;23.68;68.42
74169;BME280;62523;53.336;83.690;2023-07-08T02:26:10;98200.81;;;23.09;73.05
74169;BME280;62523;53.336;83.690;2023-07-08T02:31:11;98205.00;;;22.75;74.52
74169;BME280;62523;53.336;83.690;2023-07-08T02:36:13;98208.13;;;21.91;78.89
74169;BME280;62523;53.336;83.690;2023-07-08T02:41:15;98204.50;;;22.65;76.72
74169;BME280;62523;53.336;83.690;2023-07-08T02:46:17;98193.25;;;22.76;76.25
74169;BME280;62523;53.336;83.690;2023-07-08T02:51:19;98202.22;;;23.05;75.11
74169;BME280;62523;53.336;83.690;2023-07-08T02:56:21;98210.44;;;22.82;76.03
74169;BME280;62523;53.336;83.690;2023-07-08T03:01:24;98201.94;;;23.00;76.93
74169;BME280;62523;53.336;83.690;2023-07-08T03:06:28;98200.59;;;22.46;78.24
74169;BME280;62523;53.336;83.690;2023-07-08T03:11:30;98213.88;;;22.76;77.28
74169;BME280;62523;53.336;83.690;2023-07-08T03:16:32;98200.28;;;22.99;75.09
74169;BME280;62523;53.336;83.690;2023-07-08T03:21:35;98198.13;;;23.09;74.78
74169;BME280;62523;53.336;83.690;2023-07-08T03:26:37;98203.78;;;22.99;74.25
74169;BME280;62523;53.336;83.690;2023-07-08T03:31:38;98206.13;;;23.02;74.12
74169;BME280;62523;53.336;83.690;2023-07-08T03:36:45;98216.88;;;23.59;71.48
74169;BME280;62523;53.336;83.690;2023-07-08T03:41:51;98219.13;;;23.55;71.91
74169;BME280;62523;53.336;83.690;2023-07-08T03:46:54;98227.06;;;23.35;71.80
74169;BME280;62523;53.336;83.690;2023-07-08T03:51:56;98226.81;;;22.87;73.68
74169;BME280;62523;53.336;83.690;2023-07-08T03:56:57;98222.44;;;22.28;74.73
74169;BME280;62523;53.336;83.690;2023-07-08T04:02:01;98224.31;;;22.27;75.77
74169;BME280;62523;53.336;83.690;2023-07-08T04:07:07;98223.06;;;22.45;75.22
74169;BME280;62523;53.336;83.690;2023-07-08T04:12:08;98232.91;;;22.38;75.45
74169;BME280;62523;53.336;83.690;2023-07-08T04:17:11;98230.41;;;22.36;76.82
74169;BME280;62523;53.336;83.690;2023-07-08T04:22:14;98237.13;;;22.47;74.79
74169;BME280;62523;53.336;83.690;2023-07-08T04:27:16;98231.31;;;22.65;75.17
74169;BME280;62523;53.336;83.690;2023-07-08T04:32:18;98237.69;;;22.42;79.96
74169;BME280;62523;53.336;83.690;2023-07-08T04:37:19;98246.22;;;21.86;84.71
74169;BME280;62523;53.336;83.690;2023-07-08T04:42:21;98247.91;;;21.73;90.28
74169;BME280;62523;53.336;83.690;2023-07-08T04:47:22;98245.50;;;21.78;85.54
74169;BME280;62523;53.336;83.690;2023-07-08T04:52:24;98243.06;;;21.68;88.64
74169;BME280;62523;53.336;83.690;2023-07-08T04:57:25;98243.53;;;21.34;94.05
74169;BME280;62523;53.336;83.690;2023-07-08T05:02:27;98238.28;;;20.79;100.00
74169;BME280;62523;53.336;83.690;2023-07-08T05:07:28;98224.19;;;20.31;100.00
74169;BME280;62523;53.336;83.690;2023-07-08T05:12:30;98227.06;;;19.82;100.00
74169;BME280;62523;53.336;83.690;2023-07-08T05:17:31;98229.06;;;19.80;100.00
74169;BME280;62523;53.336;83.690;2023-07-08T05:22:33;98217.09;;;19.51;100.00
74169;BME280;62523;53.336;83.690;2023-07-08T05:27:35;98203.59;;;19.36;100.00
74169;BME280;62523;53.336;83.690;2023-07-08T05:32:37;98207.59;;;19.40;100.00
74169;BME280;62523;53.336;83.690;2023-07-08T05:37:38;98223.94;;;19.37;100.00
74169;BME280;62523;53.336;83.690;2023-07-08T05:42:41;98247.81;;;19.39;100.00
74169;BME280;62523;53.336;83.690;2023-07-08T05:47:42;98262.66;;;19.41;100.00
74169;BME280;62523;53.336;83.690;2023-07-08T05:52:44;98268.50;;;19.37;100.00
74169;BME280;62523;53.336;83.690;2023-07-08T05:57:45;98265.00;;;19.36;100.00
74169;BME280;62523;53.336;83.690;2023-07-08T06:02:47;98264.00;;;19.29;98.50
74169;BME280;62523;53.336;83.690;2023-07-08T06:07:48;98250.50;;;18.90;100.00
74169;BME280;62523;53.336;83.690;2023-07-08T06:12:50;98248.50;;;19.33;100.00
74169;BME280;62523;53.336;83.690;2023-07-08T06:17:51;98228.09;;;19.73;100.00
74169;BME280;62523;53.336;83.690;2023-07-08T06:22:53;98226.22;;;19.65;100.00
74169;BME280;62523;53.336;83.690;2023-07-08T06:27:55;98223.19;;;19.93;100.00
74169;BME280;62523;53.336;83.690;2023-07-08T06:32:56;98234.09;;;20.22;100.00
74169;BME280;62523;53.336;83.690;2023-07-08T06:37:58;98243.91;;;19.91;100.00
74169;BME280;62523;53.336;83.690;2023-07-08T06:42:59;98238.94;;;19.63;100.00
74169;BME280;62523;53.336;83.690;2023-07-08T06:48:10;98230.81;;;19.23;100.00
74169;BME280;62523;53.336;83.690;2023-07-08T06:53:12;98233.28;;;19.58;100.00
74169;BME280;62523;53.336;83.690;2023-07-08T06:58:13;98237.13;;;19.55;100.00
74169;BME280;62523;53.336;83.690;2023-07-08T07:03:15;98248.13;;;19.36;100.00
74169;BME280;62523;53.336;83.690;2023-07-08T07:08:17;98257.50;;;18.91;100.00
74169;BME280;62523;53.336;83.690;2023-07-08T07:13:18;98263.69;;;19.32;100.00
74169;BME280;62523;53.336;83.690;2023-07-08T07:18:20;98269.84;;;18.92;100.00
74169;BME280;62523;53.336;83.690;2023-07-08T07:23:22;98268.94;;;18.75;100.00
74169;BME280;62523;53.336;83.690;2023-07-08T07:28:23;98287.19;;;18.45;100.00
74169;BME280;62523;53.336;83.690;2023-07-08T07:33:25;98294.81;;;18.32;100.00
74169;BME280;62523;53.336;83.690;2023-07-08T07:38:27;98304.84;;;18.38;100.00
74169;BME280;62523;53.336;83.690;2023-07-08T07:43:30;98301.66;;;18.34;100.00
74169;BME280;62523;53.336;83.690;2023-07-08T07:48:32;98290.97;;;17.92;100.00
74169;BME280;62523;53.336;83.690;2023-07-08T07:53:33;98283.00;;;17.74;100.00
74169;BME280;62523;53.336;83.690;2023-07-08T07:58:35;98273.25;;;17.83;100.00
74169;BME280;62523;53.336;83.690;2023-07-08T08:03:36;98265.16;;;17.92;100.00
74169;BME280;62523;53.336;83.690;2023-07-08T08:08:38;98265.75;;;18.12;100.00
74169;BME280;62523;53.336;83.690;2023-07-08T08:13:39;98275.69;;;18.02;100.00
74169;BME280;62523;53.336;83.690;2023-07-08T08:18:49;98258.81;;;18.28;100.00
74169;BME280;62523;53.336;83.690;2023-07-08T08:23:51;98268.34;;;18.38;100.00
74169;BME280;62523;53.336;83.690;2023-07-08T08:28:52;98272.41;;;18.51;100.00
74169;BME280;62523;53.336;83.690;2023-07-08T08:33:54;98276.13;;;18.74;100.00
74169;BME280;62523;53.336;83.690;2023-07-08T08:38:56;98278.75;;;18.66;100.00
74169;BME280;62523;53.336;83.690;2023-07-08T08:43:59;98275.88;;;19.10;100.00
74169;BME280;62523;53.336;83.690;2023-07-08T08:49:24;98270.88;;;19.32;100.00
74169;BME280;62523;53.336;83.690;2023-07-08T08:54:29;98282.69;;;19.70;100.00
74169;BME280;62523;53.336;83.690;2023-07-08T09:04:58;98278.16;;;19.62;100.00
74169;BME280;62523;53.336;83.690;2023-07-08T09:10:09;98291.50;;;19.87;100.00
74169;BME280;62523;53.336;83.690;2023-07-08T09:15:15;98295.38;;;20.24;100.00
74169;BME280;62523;53.336;83.690;2023-07-08T09:20:25;98301.16;;;20.52;100.00
74169;BME280;62523;53.336;83.690;2023-07-08T09:25:45;98294.06;;;20.68;100.00
74169;BME280;62523;53.336;83.690;2023-07-08T09:30:52;98306.81;;;20.89;100.00
74169;BME280;62523;53.336;83.690;2023-07-08T09:35:55;98307.88;;;20.79;98.70
74169;BME280;62523;53.336;83.690;2023-07-08T09:40:56;98296.38;;;20.71;100.00
74169;BME280;62523;53.336;83.690;2023-07-08T09:45:59;98300.81;;;20.47;100.00
74169;BME280;62523;53.336;83.690;2023-07-08T09:51:01;98294.47;;;20.48;98.99
74169;BME280;62523;53.336;83.690;2023-07-08T09:56:04;98290.88;;;20.72;99.03
74169;BME280;62523;53.336;83.690;2023-07-08T10:01:11;98284.56;;;21.11;97.80
74169;BME280;62523;53.336;83.690;2023-07-08T10:06:19;98283.56;;;20.89;98.56
74169;BME280;62523;53.336;83.690;2023-07-08T10:11:31;98270.59;;;21.47;95.66
74169;BME280;62523;53.336;83.690;2023-07-08T10:16:35;98262.69;;;21.68;94.09
74169;BME280;62523;53.336;83.690;2023-07-08T10:21:55;98248.72;;;21.35;96.60
74169;BME280;62523;53.336;83.690;2023-07-08T10:27:19;98254.72;;;21.60;92.69
74169;BME280;62523;53.336;83.690;2023-07-08T10:32:55;98257.97;;;22.00;92.90
74169;BME280;62523;53.336;83.690;2023-07-08T10:43:41;98260.72;;;22.22;91.93
74169;BME280;62523;53.336;83.690;2023-07-08T10:49:02;98252.41;;;22.46;90.71
74169;BME280;62523;53.336;83.690;2023-07-08T11:10:02;98227.72;;;22.36;90.76
74169;BME280;62523;53.336;83.690;2023-07-08T11:20:54;98226.31;;;22.77;93.64
74169;BME280;62523;53.336;83.690;2023-07-08T11:31:25;98218.59;;;22.31;99.71
74169;BME280;62523;53.336;83.690;2023-07-08T11:36:28;98224.97;;;22.29;100.00
74169;BME280;62523;53.336;83.690;2023-07-08T11:41:31;98221.78;;;22.41;100.00
74169;BME280;62523;53.336;83.690;2023-07-08T11:46:34;98229.50;;;21.84;100.00
74169;BME280;62523;53.336;83.690;2023-07-08T11:51:38;98239.56;;;21.67;100.00
74169;BME280;62523;53.336;83.690;2023-07-08T11:56:59;98232.34;;;21.98;100.00
74169;BME280;62523;53.336;83.690;2023-07-08T12:07:14;98240.88;;;21.86;100.00
74169;BME280;62523;53.336;83.690;2023-07-08T12:12:27;98252.81;;;21.84;100.00
74169;BME280;62523;53.336;83.690;2023-07-08T12:17:30;98248.81;;;21.65;93.91
74169;BME280;62523;53.336;83.690;2023-07-08T12:22:32;98253.53;;;22.07;90.62
74169;BME280;62523;53.336;83.690;2023-07-08T12:27:34;98263.22;;;21.79;92.25
74169;BME280;62523;53.336;83.690;2023-07-08T12:32:35;98265.72;;;21.80;91.70
74169;BME280;62523;53.336;83.690;2023-07-08T12:37:37;98273.16;;;22.38;89.02
74169;BME280;62523;53.336;83.690;2023-07-08T12:42:39;98273.44;;;22.64;88.98
74169;BME280;62523;53.336;83.690;2023-07-08T12:47:41;98268.22;;;23.14;83.04
74169;BME280;62523;53.336;83.690;2023-07-08T12:52:44;98272.53;;;23.86;81.65
74169;BME280;62523;53.336;83.690;2023-07-08T12:57:48;98267.91;;;22.66;85.57
74169;BME280;62523;53.336;83.690;2023-07-08T13:03:08;98272.97;;;22.09;88.33
74169;BME280;62523;53.336;83.690;2023-07-08T13:08:13;98275.06;;;21.99;88.88
74169;BME280;62523;53.336;83.690;2023-07-08T13:13:20;98273.78;;;22.10;89.65
74169;BME280;62523;53.336;83.690;2023-07-08T13:18:41;98276.72;;;22.45;88.17
74169;BME280;62523;53.336;83.690;2023-07-08T13:23:49;98284.16;;;22.79;86.63
74169;BME280;62523;53.336;83.690;2023-07-08T13:28:59;98279.28;;;22.68;85.23
74169;BME280;62523;53.336;83.690;2023-07-08T13:34:17;98277.16;;;22.63;87.27
74169;BME280;62523;53.336;83.690;2023-07-08T13:39:31;98289.00;;;21.65;91.43
74169;BME280;62523;53.336;83.690;2023-07-08T13:44:34;98295.09;;;21.59;91.92
74169;BME280;62523;53.336;83.690;2023-07-08T13:49:43;98295.53;;;21.47;91.72
74169;BME280;62523;53.336;83.690;2023-07-08T13:54:58;98305.47;;;21.16;93.23
74169;BME280;62523;53.336;83.690;2023-07-08T14:00:03;98312.66;;;20.92;96.33
74169;BME280;62523;53.336;83.690;2023-07-08T14:05:14;98312.22;;;20.80;98.24
74169;BME280;62523;53.336;83.690;2023-07-08T14:10:16;98313.25;;;20.71;99.85
74169;BME280;62523;53.336;83.690;2023-07-08T14:15:19;98315.34;;;20.53;100.00
74169;BME280;62523;53.336;83.690;2023-07-08T14:20:23;98327.47;;;20.32;100.00
74169;BME280;62523;53.336;83.690;2023-07-08T14:25:26;98329.00;;;20.27;100.00
74169;BME280;62523;53.336;83.690;2023-07-08T14:30:28;98333.47;;;20.34;100.00
74169;BME280;62523;53.336;83.690;2023-07-08T14:35:30;98339.38;;;20.13;100.00
74169;BME280;62523;53.336;83.690;2023-07-08T14:40:34;98337.84;;;20.27;100.00
74169;BME280;62523;53.336;83.690;2023-07-08T14:45:42;98347.59;;;20.03;100.00
74169;BME280;62523;53.336;83.690;2023-07-08T14:50:46;98357.78;;;20.08;100.00
74169;BME280;62523;53.336;83.690;2023-07-08T14:55:51;98353.47;;;19.99;100.00
74169;BME280;62523;53.336;83.690;2023-07-08T15:00:56;98361.97;;;20.02;100.00
74169;BME280;62523;53.336;83.690;2023-07-08T15:05:58;98370.53;;;19.90;100.00
74169;BME280;62523;53.336;83.690;2023-07-08T15:11:00;98364.00;;;19.76;100.00
74169;BME280;62523;53.336;83.690;2023-07-08T15:16:05;98365.19;;;19.81;100.00
74169;BME280;62523;53.336;83.690;2023-07-08T15:21:11;98366.00;;;19.90;100.00
74169;BME280;62523;53.336;83.690;2023-07-08T15:26:14;98380.03;;;19.76;100.00
74169;BME280;62523;53.336;83.690;2023-07-08T15:31:18;98381.84;;;19.92;100.00
74169;BME280;62523;53.336;83.690;2023-07-08T15:36:21;98385.06;;;19.79;100.00
74169;BME280;62523;53.336;83.690;2023-07-08T15:41:25;98378.03;;;19.94;100.00
74169;BME280;62523;53.336;83.690;2023-07-08T15:46:32;98377.38;;;19.84;100.00
74169;BME280;62523;53.336;83.690;2023-07-08T15:51:35;98374.16;;;20.05;100.00
74169;BME280;62523;53.336;83.690;2023-07-08T15:56:38;98375.38;;;19.86;100.00
74169;BME280;62523;53.336;83.690;2023-07-08T16:01:41;98373.72;;;19.77;100.00
74169;BME280;62523;53.336;83.690;2023-07-08T16:06:43;98384.22;;;19.78;100.00
74169;BME280;62523;53.336;83.690;2023-07-08T16:11:44;98387.53;;;19.97;100.00
74169;BME280;62523;53.336;83.690;2023-07-08T16:16:46;98398.22;;;19.72;100.00
74169;BME280;62523;53.336;83.690;2023-07-08T16:21:48;98403.06;;;19.69;100.00
74169;BME280;62523;53.336;83.690;2023-07-08T16:26:49;98410.91;;;19.62;100.00
74169;BME280;62523;53.336;83.690;2023-07-08T16:31:51;98412.56;;;19.55;100.00
74169;BME280;62523;53.336;83.690;2023-07-08T16:36:53;98416.06;;;19.47;100.00
74169;BME280;62523;53.336;83.690;2023-07-08T16:41:54;98415.41;;;19.45;100.00
74169;BME280;62523;53.336;83.690;2023-07-08T16:46:57;98418.72;;;19.39;100.00
74169;BME280;62523;53.336;83.690;2023-07-08T16:51:59;98435.56;;;19.39;100.00
74169;BME280;62523;53.336;83.690;2023-07-08T16:57:00;98421.56;;;19.37;100.00
74169;BME280;62523;53.336;83.690;2023-07-08T17:02:07;98428.88;;;19.27;100.00
74169;BME280;62523;53.336;83.690;2023-07-08T17:07:11;98433.38;;;19.27;100.00
74169;BME280;62523;53.336;83.690;2023-07-08T17:12:12;98431.72;;;19.26;100.00
74169;BME280;62523;53.336;83.690;2023-07-08T17:17:14;98427.69;;;19.21;100.00
74169;BME280;62523;53.336;83.690;2023-07-08T17:22:17;98411.03;;;19.28;100.00
74169;BME280;62523;53.336;83.690;2023-07-08T17:27:19;98409.31;;;19.18;100.00
74169;BME280;62523;53.336;83.690;2023-07-08T17:32:20;98404.50;;;19.22;100.00
74169;BME280;62523;53.336;83.690;2023-07-08T17:37:22;98401.34;;;19.35;100.00
74169;BME280;62523;53.336;83.690;2023-07-08T17:42:23;98399.00;;;19.15;100.00
74169;BME280;62523;53.336;83.690;2023-07-08T17:47:25;98410.84;;;19.13;100.00
74169;BME280;62523;53.336;83.690;2023-07-08T17:52:26;98416.84;;;19.15;100.00
74169;BME280;62523;53.336;83.690;2023-07-08T17:57:28;98410.84;;;19.21;100.00
74169;BME280;62523;53.336;83.690;2023-07-08T18:02:29;98403.69;;;19.21;100.00
74169;BME280;62523;53.336;83.690;2023-07-08T18:07:31;98406.31;;;19.13;100.00
74169;BME280;62523;53.336;83.690;2023-07-08T18:12:33;98405.31;;;19.06;100.00
74169;BME280;62523;53.336;83.690;2023-07-08T18:17:37;98410.13;;;19.02;100.00
74169;BME280;62523;53.336;83.690;2023-07-08T18:22:43;98404.09;;;18.92;100.00
74169;BME280;62523;53.336;83.690;2023-07-08T18:27:47;98399.72;;;18.83;100.00
74169;BME280;62523;53.336;83.690;2023-07-08T18:32:51;98403.56;;;18.80;100.00
74169;BME280;62523;53.336;83.690;2023-07-08T18:37:53;98407.00;;;18.73;100.00
74169;BME280;62523;53.336;83.690;2023-07-08T18:43:18;98398.78;;;18.66;100.00
74169;BME280;62523;53.336;83.690;2023-07-08T18:48:20;98399.44;;;18.60;100.00
74169;BME280;62523;53.336;83.690;2023-07-08T18:53:23;98391.09;;;18.55;100.00
74169;BME280;62523;53.336;83.690;2023-07-08T18:58:25;98394.72;;;18.46;100.00
74169;BME280;62523;53.336;83.690;2023-07-08T19:03:28;98400.88;;;18.46;100.00
74169;BME280;62523;53.336;83.690;2023-07-08T19:08:30;98398.50;;;18.35;100.00
74169;BME280;62523;53.336;83.690;2023-07-08T19:13:33;98404.75;;;18.26;100.00
74169;BME280;62523;53.336;83.690;2023-07-08T19:18:34;98400.56;;;18.23;100.00
74169;BME280;62523;53.336;83.690;2023-07-08T19:23:38;98397.03;;;18.14;100.00
74169;BME280;62523;53.336;83.690;2023-07-08T19:28:49;98396.69;;;18.17;100.00
74169;BME280;62523;53.336;83.690;2023-07-08T19:33:51;98403.50;;;18.12;100.00
74169;BME280;62523;53.336;83.690;2023-07-08T19:38:53;98404.13;;;18.06;100.00
74169;BME280;62523;53.336;83.690;2023-07-08T19:43:56;98400.09;;;18.01;100.00
74169;BME280;62523;53.336;83.690;2023-07-08T19:48:58;98407.56;;;17.98;100.00
74169;BME280;62523;53.336;83.690;2023-07-08T19:54:00;98417.38;;;17.97;100.00
74169;BME280;62523;53.336;83.690;2023-07-08T19:59:01;98410.69;;;17.93;100.00
74169;BME280;62523;53.336;83.690;2023-07-08T20:04:03;98408.81;;;17.86;100.00
74169;BME280;62523;53.336;83.690;2023-07-08T20:09:07;98408.03;;;17.75;100.00
74169;BME280;62523;53.336;83.690;2023-07-08T20:14:09;98418.47;;;17.69;100.00
74169;BME280;62523;53.336;83.690;2023-07-08T20:19:20;98417.84;;;17.57;100.00
74169;BME280;62523;53.336;83.690;2023-07-08T20:24:24;98418.19;;;17.54;100.00
74169;BME280;62523;53.336;83.690;2023-07-08T20:29:26;98421.81;;;17.53;100.00
74169;BME280;62523;53.336;83.690;2023-07-08T20:34:27;98418.94;;;17.46;100.00
74169;BME280;62523;53.336;83.690;2023-07-08T20:39:29;98417.72;;;17.40;100.00
74169;BME280;62523;53.336;83.690;2023-07-08T20:44:32;98416.88;;;17.40;100.00
74169;BME280;62523;53.336;83.690;2023-07-08T20:49:35;98420.31;;;17.32;100.00
74169;BME280;62523;53.336;83.690;2023-07-08T20:54:38;98414.44;;;17.29;100.00
74169;BME280;62523;53.336;83.690;2023-07-08T20:59:39;98418.16;;;17.18;100.00
74169;BME280;62523;53.336;83.690;2023-07-08T21:04:41;98419.97;;;17.17;100.00
74169;BME280;62523;53.336;83.690;2023-07-08T21:09:42;98427.03;;;17.09;100.00
74169;BME280;62523;53.336;83.690;2023-07-08T21:14:44;98423.47;;;17.18;100.00
74169;BME280;62523;53.336;83.690;2023-07-08T21:19:45;98424.06;;;17.12;100.00
74169;BME280;62523;53.336;83.690;2023-07-08T21:24:47;98423.84;;;17.05;100.00
74169;BME280;62523;53.336;83.690;2023-07-08T21:29:48;98412.81;;;17.00;100.00
74169;BME280;62523;53.336;83.690;2023-07-08T21:34:50;98418.59;;;16.95;100.00
74169;BME280;62523;53.336;83.690;2023-07-08T21:39:51;98423.81;;;16.87;100.00
74169;BME280;62523;53.336;83.690;2023-07-08T21:44:53;98431.78;;;16.77;100.00
74169;BME280;62523;53.336;83.690;2023-07-08T21:49:54;98432.69;;;16.68;100.00
74169;BME280;62523;53.336;83.690;2023-07-08T21:54:56;98426.56;;;16.58;100.00
74169;BME280;62523;53.336;83.690;2023-07-08T21:59:57;98433.16;;;16.54;100.00
74169;BME280;62523;53.336;83.690;2023-07-08T22:04:59;98436.25;;;16.49;100.00
74169;BME280;62523;53.336;83.690;2023-07-08T22:10:00;98439.47;;;16.53;100.00
74169;BME280;62523;53.336;83.690;2023-07-08T22:15:02;98452.19;;;16.49;100.00
74169;BME280;62523;53.336;83.690;2023-07-08T22:20:05;98446.75;;;16.51;100.00
74169;BME280;62523;53.336;83.690;2023-07-08T22:25:22;98447.03;;;16.48;100.00
74169;BME280;62523;53.336;83.690;2023-07-08T22:30:24;98451.69;;;16.36;100.00
74169;BME280;62523;53.336;83.690;2023-07-08T22:35:25;98454.22;;;16.28;100.00
74169;BME280;62523;53.336;83.690;2023-07-08T22:40:33;98466.06;;;16.43;100.00
74169;BME280;62523;53.336;83.690;2023-07-08T22:45:36;98470.28;;;16.36;100.00
74169;BME280;62523;53.336;83.690;2023-07-08T22:50:38;98468.88;;;16.42;100.00
74169;BME280;62523;53.336;83.690;2023-07-08T22:55:46;98478.25;;;16.46;100.00
74169;BME280;62523;53.336;83.690;2023-07-08T23:00:48;98472.69;;;16.39;100.00
74169;BME280;62523;53.336;83.690;2023-07-08T23:05:52;98484.56;;;16.25;100.00
74169;BME280;62523;53.336;83.690;2023-07-08T23:10:54;98493.38;;;16.35;100.00
74169;BME280;62523;53.336;83.690;2023-07-08T23:15:56;98494.78;;;16.30;100.00
74169;BME280;62523;53.336;83.690;2023-07-08T23:20:57;98506.94;;;16.42;100.00
74169;BME280;62523;53.336;83.690;2023-07-08T23:25:59;98515.31;;;16.94;100.00
74169;BME280;62523;53.336;83.690;2023-07-08T23:31:00;98511.00;;;17.67;100.00
74169;BME280;62523;53.336;83.690;2023-07-08T23:36:02;98510.78;;;17.60;100.00
74169;BME280;62523;53.336;83.690;2023-07-08T23:41:03;98514.72;;;17.74;100.00
74169;BME280;62523;53.336;83.690;2023-07-08T23:46:08;98517.63;;;17.17;100.00
74169;BME280;62523;53.336;83.690;2023-07-08T23:51:10;98538.47;;;16.74;100.00
74169;BME280;62523;53.336;83.690;2023-07-08T23:56:16;98528.28;;;16.70;100.00
